Search for airport 
image banner adimage banner adimage banner ad
image banner ad

39PS - Stat Medevac Harborcreek

Located in Harborcreek, United States

ICAO - 39PS, IATA -

Data provided by Airmate  

General information

Coordinates: N42°10'19" W79°56'34"
Elevation is 760 feet MSL.
Magnetic variation is -10° East
View others Airports in Pennsylvania

Operational data

Special qualification required
Current time UTC:
Current local time:
Weather at : KERI - Erie Intl/Tom Ridge Field ( 21 km )
METAR: KERI 150451Z AUTO 33003KT 10SM BKN036 19/14 A2987 RMK AO2 SLP112 T01890139 402280156
TAF: KERI 142338Z 1500/1524 26009KT P6SM BKN120 FM151000 32008KT P6SM BKN040 TEMPO 1510/1512 BKN025 FM151800 29012G20KT P6SM FEW250 FM152300 32013KT P6SM SCT250
View NOTAMs / SUP AIP / TFR affecting this airport [VIEW]
Communications frequencies: [VIEW]

Runways:

Airport contact information

Address: Harborcreek United States

Satellite view of 39PS